Time;durP1;ratioP1;P1;durP2;ratioP2;P2;SDS_P1;SDS_P2;PMS_P1;PMS_P2;Temp;Humidity;BMP_temperature;BMP_pressure;BME280_temperature;BME280_humidity;BME280_pressure;Samples;Min_cycle;Max_cycle;Signal;HPM_P1;HPM_P2
2021/07/27 00:01:05;;;;;;;;;;;;;;;20.76;61.30;101144.50;5158851;27;747;-60
2021/07/27 00:03:30;;;;;;;;;;;;;;;21.37;60.96;101142.09;5158456;27;794;-54
2021/07/27 00:05:56;;;;;;;;;;;;;;;21.76;59.46;101134.66;5158692;27;1025;-60
2021/07/27 00:08:21;;;;;;;;;;;;;;;21.66;59.58;101132.88;5158617;27;767;-60
2021/07/27 00:10:47;;;;;;;;;;;;;;;21.95;58.42;101134.63;5158370;27;759;-60
2021/07/27 00:13:12;;;;;;;;;;;;;;;20.79;60.65;101132.00;5158219;27;956;-60
2021/07/27 00:15:37;;;;;;;;;;;;;;;20.49;60.07;101132.00;5158164;27;759;-60
2021/07/27 00:18:05;;;;;;;;;;;;;;;20.26;58.28;101130.84;5158438;27;1972;-61
2021/07/27 00:20:31;;;;;;;;;;;;;;;20.31;57.07;101130.81;5158682;27;759;-59
2021/07/27 00:22:56;;;;;;;;;;;;;;;20.51;55.21;101137.25;5157762;27;751;-60
2021/07/27 00:25:21;;;;;;;;;;;;;;;20.17;55.11;101133.44;5158709;27;743;-59
2021/07/27 00:27:47;;;;;;;;;;;;;;;20.12;54.59;101143.69;5157901;27;949;-59
2021/07/27 00:30:12;;;;;;;;;;;;;;;20.30;53.62;101142.97;5158157;27;763;-60
2021/07/27 00:32:38;;;;;;;;;;;;;;;20.22;54.12;101132.56;5158629;27;755;-41
2021/07/27 00:35:04;;;;;;;;;;;;;;;20.26;55.58;101132.78;5157747;27;613;-41
2021/07/27 00:37:32;;;;;;;;;;;;;;;20.57;56.12;101118.69;5157960;27;1917;-44
2021/07/27 00:39:58;;;;;;;;;;;;;;;20.72;56.93;101115.78;5158239;27;778;-60
2021/07/27 00:42:24;;;;;;;;;;;;;;;20.91;57.36;101117.78;5138721;27;965;-59
2021/07/27 00:44:49;;;;;;;;;;;;;;;20.97;57.70;101111.91;5157888;27;778;-57
2021/07/27 00:47:14;;;;;;;;;;;;;;;21.08;57.89;101115.34;5158113;27;794;-40
2021/07/27 00:49:40;;;;;;;;;;;;;;;21.17;58.10;101108.03;5158153;27;760;-49
2021/07/27 00:52:05;;;;;;;;;;;;;;;21.34;57.84;101104.78;5139502;27;823;-59
2021/07/27 00:54:31;;;;;;;;;;;;;;;20.64;60.24;101113.63;5157768;27;810;-59
2021/07/27 00:56:57;;;;;;;;;;;;;;;20.47;61.17;101114.09;5139320;27;1207;-59
2021/07/27 00:59:22;;;;;;;;;;;;;;;20.10;59.85;101105.31;5139437;27;1910;-59
2021/07/27 01:01:48;;;;;;;;;;;;;;;20.81;59.95;101107.69;5157741;27;814;-60
2021/07/27 01:04:13;;;;;;;;;;;;;;;21.45;58.61;101105.47;5157772;27;842;-59
2021/07/27 01:06:38;;;;;;;;;;;;;;;21.67;58.15;101112.34;5157765;27;1021;-41
2021/07/27 01:09:04;;;;;;;;;;;;;;;21.75;58.10;101111.69;5157809;27;859;-53
2021/07/27 01:11:29;;;;;;;;;;;;;;;21.82;58.01;101103.81;5157412;27;1019;-57
2021/07/27 01:13:55;;;;;;;;;;;;;;;21.78;58.11;101100.00;5158037;27;1048;-59
2021/07/27 01:16:24;;;;;;;;;;;;;;;20.82;61.59;101099.09;5157508;27;866;-57
2021/07/27 01:19:02;;;;;;;;;;;;;;;20.63;61.84;101100.94;5157599;27;1905;-43
2021/07/27 01:37:56;;;;;;;;;;;;;;;20.60;60.32;101090.47;5161369;27;1917;-58
2021/07/27 01:40:24;;;;;;;;;;;;;;;20.59;60.03;101086.88;5161469;27;871;-60
2021/07/27 01:42:49;;;;;;;;;;;;;;;21.24;60.77;101088.31;5161145;27;1000;-57
2021/07/27 01:45:15;;;;;;;;;;;;;;;21.62;59.38;101087.53;5161409;27;834;-41
2021/07/27 01:47:41;;;;;;;;;;;;;;;21.95;58.29;101093.09;5161865;27;751;-60
2021/07/27 01:50:06;;;;;;;;;;;;;;;22.05;58.18;101095.72;5161632;27;728;-60
2021/07/27 01:52:32;;;;;;;;;;;;;;;21.35;60.08;101094.56;5161422;27;760;-59
2021/07/27 01:54:57;;;;;;;;;;;;;;;20.82;62.12;101092.75;5160782;27;803;-59
2021/07/27 01:57:24;;;;;;;;;;;;;;;20.59;61.43;101095.16;5160761;27;1983;-60
2021/07/27 01:59:58;;;;;;;;;;;;;;;20.58;60.21;101098.22;5142718;27;1446;-60
2021/07/27 02:02:24;;;;;;;;;;;;;;;21.17;61.39;101096.19;5161475;27;775;-59
2021/07/27 02:04:49;;;;;;;;;;;;;;;21.69;59.55;101097.09;5160589;27;1062;-53
2021/07/27 02:07:15;;;;;;;;;;;;;;;21.97;58.78;101093.63;5160696;27;847;-59
2021/07/27 02:09:43;;;;;;;;;;;;;;;22.00;58.47;101101.31;5160971;27;791;-44
2021/07/27 02:12:20;;;;;;;;;;;;;;;21.10;59.96;101098.50;5160675;27;1104;-58
2021/07/27 02:17:29;;;;;;;;;;;;;;;19.98;58.07;101102.94;5160834;27;1909;-47
2021/07/27 02:19:55;;;;;;;;;;;;;;;20.02;58.62;101107.88;5160288;27;799;-40
2021/07/27 02:22:20;;;;;;;;;;;;;;;20.23;56.42;101100.22;5160854;27;890;-56
2021/07/27 02:24:46;;;;;;;;;;;;;;;20.63;55.70;101111.97;5160401;27;770;-59
2021/07/27 02:27:11;;;;;;;;;;;;;;;20.59;56.86;101099.88;5160251;27;1012;-59
2021/07/27 02:29:37;;;;;;;;;;;;;;;20.85;56.96;101104.00;5160652;27;1176;-59
2021/07/27 02:32:02;;;;;;;;;;;;;;;21.04;57.35;101100.47;5160513;27;809;-59
2021/07/27 02:34:31;;;;;;;;;;;;;;;21.13;57.58;101100.66;5160357;27;770;-59
2021/07/27 02:36:57;;;;;;;;;;;;;;;21.03;58.44;101094.13;5160413;27;831;-58
2021/07/27 02:39:22;;;;;;;;;;;;;;;21.32;57.85;101092.34;5160146;27;1968;-60
2021/07/27 02:41:48;;;;;;;;;;;;;;;21.37;58.00;101097.81;5160051;27;1016;-59
2021/07/27 02:44:13;;;;;;;;;;;;;;;20.96;59.37;101095.63;5160254;27;811;-60
2021/07/27 02:46:38;;;;;;;;;;;;;;;20.70;60.67;101095.09;5140796;27;935;-59
2021/07/27 02:49:04;;;;;;;;;;;;;;;20.46;60.12;101091.16;5160602;27;791;-60
2021/07/27 02:51:29;;;;;;;;;;;;;;;20.10;60.87;101088.75;5160229;27;790;-40
2021/07/27 02:53:55;;;;;;;;;;;;;;;20.71;60.87;101094.81;5141420;27;779;-59
2021/07/27 02:56:20;;;;;;;;;;;;;;;21.40;58.97;101096.41;5160004;27;937;-58
2021/07/27 02:58:46;;;;;;;;;;;;;;;21.61;58.48;101095.00;5159825;27;1968;-60
2021/07/27 03:01:11;;;;;;;;;;;;;;;21.60;58.55;101106.38;5160416;27;742;-58
2021/07/27 03:03:36;;;;;;;;;;;;;;;21.31;59.57;101108.13;5159930;27;874;-43
2021/07/27 03:06:03;;;;;;;;;;;;;;;20.75;61.66;101109.69;5159664;27;1054;-58
2021/07/27 03:08:45;;;;;;;;;;;;;;;20.70;61.84;101119.97;5159717;27;763;-41
2021/07/27 03:11:11;;;;;;;;;;;;;;;20.52;58.96;101123.16;5159258;27;976;-57
2021/07/27 03:13:36;;;;;;;;;;;;;;;21.29;60.43;101123.38;5159916;27;830;-59
2021/07/27 03:16:02;;;;;;;;;;;;;;;21.68;59.36;101122.31;5159262;27;747;-59
2021/07/27 03:18:27;;;;;;;;;;;;;;;22.04;58.05;101139.16;5141160;27;1905;-59
2021/07/27 03:20:52;;;;;;;;;;;;;;;22.18;57.74;101139.22;5159855;27;754;-59
2021/07/27 03:23:20;;;;;;;;;;;;;;;21.32;60.26;101139.38;5159230;27;724;-60
2021/07/27 03:25:46;;;;;;;;;;;;;;;20.87;62.15;101147.13;5159407;27;763;-60
2021/07/27 03:28:13;;;;;;;;;;;;;;;20.61;59.63;101150.16;5159065;27;948;-59
2021/07/27 03:30:39;;;;;;;;;;;;;;;20.82;60.78;101142.50;5159618;27;810;-56
2021/07/27 03:33:04;;;;;;;;;;;;;;;21.40;60.81;101135.13;5159269;27;847;-59
2021/07/27 03:35:30;;;;;;;;;;;;;;;21.70;59.81;101133.91;5159186;27;759;-60
2021/07/27 03:37:55;;;;;;;;;;;;;;;21.97;58.90;101132.38;5158680;27;1960;-59
2021/07/27 03:40:21;;;;;;;;;;;;;;;21.31;60.75;101129.47;5159777;27;808;-57
2021/07/27 03:42:46;;;;;;;;;;;;;;;20.96;62.41;101132.38;5159165;27;993;-62
2021/07/27 03:45:12;;;;;;;;;;;;;;;20.91;61.25;101129.66;5159055;27;747;-61
2021/07/27 03:47:37;;;;;;;;;;;;;;;20.76;58.58;101136.19;5158897;27;814;-50
2021/07/27 03:50:03;;;;;;;;;;;;;;;21.44;60.32;101139.75;5157681;27;1351;-62
2021/07/27 03:52:28;;;;;;;;;;;;;;;21.71;60.37;101143.84;5177004;27;767;-43
2021/07/27 03:54:54;;;;;;;;;;;;;;;21.80;59.94;101139.28;5140636;27;786;-52
2021/07/27 03:57:19;;;;;;;;;;;;;;;22.13;59.02;101135.72;5163774;27;881;-43
2021/07/27 03:59:45;;;;;;;;;;;;;;;21.16;61.74;101128.50;5159015;27;1917;-62
2021/07/27 04:02:10;;;;;;;;;;;;;;;20.96;62.62;101131.56;5158864;27;787;-59
2021/07/27 04:04:36;;;;;;;;;;;;;;;20.69;60.61;101138.47;5158690;27;1115;-43
2021/07/27 04:07:01;;;;;;;;;;;;;;;20.73;60.53;101134.00;5158562;27;1429;-62
2021/07/27 04:09:30;;;;;;;;;;;;;;;21.47;61.28;101136.41;5167250;27;744;-47
2021/07/27 04:11:55;;;;;;;;;;;;;;;21.93;60.14;101134.94;5170001;27;948;-60
2021/07/27 04:14:21;;;;;;;;;;;;;;;22.19;59.12;101129.78;5158680;27;798;-55
2021/07/27 04:16:46;;;;;;;;;;;;;;;21.98;59.61;101128.47;5158147;27;755;-42
2021/07/27 04:19:11;;;;;;;;;;;;;;;21.31;61.71;101127.50;5169811;27;1975;-58
2021/07/27 04:21:43;;;;;;;;;;;;;;;21.26;61.26;101132.28;5179374;27;777;-59
2021/07/27 04:24:09;;;;;;;;;;;;;;;20.83;58.99;101124.78;5179273;27;766;-44
2021/07/27 04:26:34;;;;;;;;;;;;;;;21.29;59.99;101126.16;5160526;27;819;-57
2021/07/27 04:29:00;;;;;;;;;;;;;;;21.75;60.91;101128.28;5158257;27;803;-45
2021/07/27 04:31:25;;;;;;;;;;;;;;;21.90;59.34;101120.88;5158333;27;739;-43
2021/07/27 04:33:51;;;;;;;;;;;;;;;22.12;59.35;101118.28;5157977;27;790;-57
2021/07/27 04:36:17;;;;;;;;;;;;;;;21.81;60.34;101126.25;5158253;27;778;-42
2021/07/27 04:38:42;;;;;;;;;;;;;;;21.56;61.49;101125.53;5157969;27;1938;-59
2021/07/27 04:41:08;;;;;;;;;;;;;;;21.26;61.02;101126.75;5157452;27;921;-56
2021/07/27 04:43:34;;;;;;;;;;;;;;;20.97;58.90;101122.13;5157959;27;937;-56
2021/07/27 04:46:03;;;;;;;;;;;;;;;21.23;57.01;101135.66;5158437;27;883;-43
2021/07/27 04:48:28;;;;;;;;;;;;;;;21.56;60.28;101144.06;5157938;27;783;-48
2021/07/27 04:50:54;;;;;;;;;;;;;;;22.02;61.33;101146.97;5158398;27;822;-43
2021/07/27 04:53:23;;;;;;;;;;;;;;;22.20;61.20;101150.84;5157707;27;763;-45
2021/07/27 04:55:52;;;;;;;;;;;;;;;22.26;60.83;101150.72;5157822;27;866;-41
2021/07/27 04:58:18;;;;;;;;;;;;;;;21.90;62.03;101159.63;5136979;28;1922;-43
2021/07/27 05:00:43;;;;;;;;;;;;;;;21.78;61.64;101160.06;5137165;28;732;-43
2021/07/27 05:03:09;;;;;;;;;;;;;;;21.09;58.49;101158.47;5139499;27;803;-43
2021/07/27 05:05:34;;;;;;;;;;;;;;;21.23;58.37;101157.78;5141006;27;1125;-56
2021/07/27 05:08:00;;;;;;;;;;;;;;;21.40;58.96;101162.81;5140926;27;774;-45
2021/07/27 05:10:25;;;;;;;;;;;;;;;21.35;57.59;101158.97;5141649;27;811;-62
2021/07/27 05:12:51;;;;;;;;;;;;;;;20.97;56.60;101169.97;5158267;27;962;-59
2021/07/27 05:15:16;;;;;;;;;;;;;;;20.77;56.02;101167.41;5161868;27;835;-48
2021/07/27 05:17:42;;;;;;;;;;;;;;;20.68;55.28;101170.00;5161722;27;1933;-53
2021/07/27 05:20:08;;;;;;;;;;;;;;;20.75;55.75;101164.94;5161709;27;854;-44
2021/07/27 05:22:34;;;;;;;;;;;;;;;21.09;57.59;101163.19;5161805;27;759;-43
2021/07/27 05:24:59;;;;;;;;;;;;;;;21.63;58.46;101175.78;5161846;27;907;-47
2021/07/27 05:27:25;;;;;;;;;;;;;;;21.59;60.39;101171.97;5161546;27;957;-59
2021/07/27 05:29:50;;;;;;;;;;;;;;;21.34;62.29;101173.94;5161926;27;814;-45
2021/07/27 05:32:16;;;;;;;;;;;;;;;21.45;62.08;101177.38;5161308;27;1021;-43
2021/07/27 05:34:41;;;;;;;;;;;;;;;21.15;59.59;101182.19;5161945;27;751;-44
2021/07/27 05:37:07;;;;;;;;;;;;;;;21.03;58.14;101170.72;5143469;27;1096;-59
2021/07/27 05:39:32;;;;;;;;;;;;;;;21.60;60.51;101183.84;5161234;27;1914;-44
2021/07/27 05:41:58;;;;;;;;;;;;;;;21.70;61.22;101186.50;5161339;27;960;-45
2021/07/27 05:44:26;;;;;;;;;;;;;;;21.85;60.13;101185.44;5161228;27;760;-44
2021/07/27 05:46:55;;;;;;;;;;;;;;;21.85;58.50;101180.75;5161550;27;707;-43
2021/07/27 05:49:21;;;;;;;;;;;;;;;21.78;58.11;101180.25;5161316;27;790;-51
2021/07/27 05:51:49;;;;;;;;;;;;;;;21.83;57.21;101182.16;5161125;27;806;-42
2021/07/27 05:54:15;;;;;;;;;;;;;;;21.64;57.39;101182.97;5161315;27;822;-44
2021/07/27 05:56:40;;;;;;;;;;;;;;;21.61;57.22;101185.50;5161020;27;937;-49
2021/07/27 05:59:06;;;;;;;;;;;;;;;21.04;58.83;101183.41;5160588;27;1910;-61
2021/07/27 06:01:31;;;;;;;;;;;;;;;20.77;59.35;101176.53;5161177;27;831;-57
2021/07/27 06:03:57;;;;;;;;;;;;;;;20.20;59.44;101180.88;5161080;27;1023;-58
2021/07/27 06:06:22;;;;;;;;;;;;;;;21.13;58.66;101189.13;5160727;27;1200;-44
2021/07/27 06:08:47;;;;;;;;;;;;;;;21.07;58.08;101191.13;5160847;27;759;-59
2021/07/27 06:11:13;;;;;;;;;;;;;;;21.28;57.46;101186.19;5160279;27;997;-56
2021/07/27 06:13:39;;;;;;;;;;;;;;;21.43;56.81;101196.22;5160775;27;800;-58
2021/07/27 06:16:05;;;;;;;;;;;;;;;21.48;56.52;101187.84;5160861;27;786;-45
2021/07/27 06:18:31;;;;;;;;;;;;;;;21.60;56.21;101192.16;5161306;27;1980;-58
2021/07/27 06:20:56;;;;;;;;;;;;;;;21.49;56.36;101185.91;5160607;27;782;-59
2021/07/27 06:23:22;;;;;;;;;;;;;;;21.27;57.20;101189.25;5160684;27;806;-44
2021/07/27 06:25:47;;;;;;;;;;;;;;;20.66;59.07;101177.72;5160577;27;778;-43
2021/07/27 06:28:13;;;;;;;;;;;;;;;20.56;58.89;101183.34;5160279;27;949;-43
2021/07/27 06:30:38;;;;;;;;;;;;;;;20.22;57.32;101178.69;5160703;27;773;-44
2021/07/27 06:33:04;;;;;;;;;;;;;;;20.82;59.30;101182.00;5160513;27;751;-42
2021/07/27 06:35:29;;;;;;;;;;;;;;;20.83;59.19;101172.59;5160280;27;743;-55
2021/07/27 06:37:54;;;;;;;;;;;;;;;21.03;58.44;101179.03;5160439;27;1909;-42
2021/07/27 06:40:20;;;;;;;;;;;;;;;21.16;58.30;101180.25;5160331;27;794;-50
2021/07/27 06:42:46;;;;;;;;;;;;;;;21.11;58.65;101180.28;5160199;27;1071;-59
2021/07/27 06:45:17;;;;;;;;;;;;;;;20.95;59.22;101179.66;5141512;27;1177;-43
2021/07/27 06:47:43;;;;;;;;;;;;;;;20.79;59.97;101179.81;5160203;27;791;-44
2021/07/27 06:50:08;;;;;;;;;;;;;;;20.67;59.64;101174.69;5159861;27;751;-44
2021/07/27 06:52:34;;;;;;;;;;;;;;;20.28;59.69;101178.31;5160419;27;743;-59
2021/07/27 06:54:59;;;;;;;;;;;;;;;20.98;60.16;101176.31;5160075;27;787;-54
2021/07/27 06:57:26;;;;;;;;;;;;;;;21.19;59.21;101174.13;5159894;27;996;-53
2021/07/27 06:59:51;;;;;;;;;;;;;;;21.47;57.98;101172.38;5159921;27;1984;-43
2021/07/27 07:02:17;;;;;;;;;;;;;;;21.50;58.05;101173.72;5159735;27;893;-54
2021/07/27 07:04:42;;;;;;;;;;;;;;;21.23;58.87;101179.91;5159579;27;999;-56
2021/07/27 07:07:08;;;;;;;;;;;;;;;20.97;60.13;101183.78;5159916;27;750;-43
2021/07/27 07:09:34;;;;;;;;;;;;;;;20.83;59.78;101177.28;5159678;27;1526;-54
2021/07/27 07:11:59;;;;;;;;;;;;;;;20.31;58.66;101171.41;5159452;27;945;-42
2021/07/27 07:14:24;;;;;;;;;;;;;;;20.54;59.80;101175.34;5160017;27;799;-43
2021/07/27 07:16:50;;;;;;;;;;;;;;;21.31;60.22;101174.53;5159395;27;692;-43
2021/07/27 07:19:15;;;;;;;;;;;;;;;21.94;59.43;101172.56;5159442;27;1971;-43
2021/07/27 07:21:41;;;;;;;;;;;;;;;22.28;59.24;101170.66;5159479;27;755;-48
2021/07/27 07:24:06;;;;;;;;;;;;;;;21.67;62.09;101167.69;5158845;27;886;-55
2021/07/27 07:26:31;;;;;;;;;;;;;;;21.78;62.33;101168.38;5158228;27;933;-46
2021/07/27 07:28:57;;;;;;;;;;;;;;;21.36;59.00;101168.94;5159238;27;771;-46
2021/07/27 07:31:22;;;;;;;;;;;;;;;20.69;57.15;101166.09;5159347;27;775;-46
2021/07/27 07:33:48;;;;;;;;;;;;;;;21.19;58.72;101172.16;5159419;27;771;-57
2021/07/27 07:36:14;;;;;;;;;;;;;;;21.05;58.66;101162.13;5159333;27;855;-52
2021/07/27 07:38:40;;;;;;;;;;;;;;;21.05;56.96;101168.47;5159254;27;1972;-43
2021/07/27 07:41:06;;;;;;;;;;;;;;;20.71;56.47;101160.31;5158445;27;972;-54
2021/07/27 07:43:31;;;;;;;;;;;;;;;20.68;55.49;101167.25;5159087;27;771;-43
2021/07/27 07:45:57;;;;;;;;;;;;;;;20.59;55.14;101157.88;5159321;27;807;-58
2021/07/27 07:48:22;;;;;;;;;;;;;;;20.61;55.66;101158.44;5158936;27;767;-44
2021/07/27 07:50:48;;;;;;;;;;;;;;;20.74;56.32;101168.81;5177003;27;1516;-43
2021/07/27 07:53:13;;;;;;;;;;;;;;;20.71;57.32;101169.41;5180187;27;771;-55
2021/07/27 07:55:38;;;;;;;;;;;;;;;21.11;56.82;101172.00;5175461;27;1342;-55
2021/07/27 07:58:04;;;;;;;;;;;;;;;21.05;57.51;101175.97;5161138;27;1982;-43
2021/07/27 08:00:29;;;;;;;;;;;;;;;21.14;57.79;101177.78;5161069;27;1406;-43
2021/07/27 08:02:55;;;;;;;;;;;;;;;20.95;58.43;101188.75;5167585;27;811;-50
2021/07/27 08:05:21;;;;;;;;;;;;;;;20.76;59.29;101183.19;5158652;27;1061;-50
2021/07/27 08:07:46;;;;;;;;;;;;;;;20.48;58.94;101185.63;5158462;27;851;-42
2021/07/27 08:10:12;;;;;;;;;;;;;;;20.31;59.12;101185.22;5158486;27;849;-57
2021/07/27 08:12:37;;;;;;;;;;;;;;;21.06;59.26;101178.44;5158110;27;973;-56
2021/07/27 08:15:03;;;;;;;;;;;;;;;21.65;59.08;101181.03;5158613;27;810;-42
2021/07/27 08:17:28;;;;;;;;;;;;;;;21.83;60.14;101180.19;5158311;27;806;-42
2021/07/27 08:19:54;;;;;;;;;;;;;;;21.45;62.40;101176.56;5158210;27;1996;-42
2021/07/27 08:22:19;;;;;;;;;;;;;;;21.67;61.95;101176.00;5158522;27;822;-42
2021/07/27 08:24:45;;;;;;;;;;;;;;;20.99;59.16;101175.19;5158312;27;870;-43
2021/07/27 08:27:10;;;;;;;;;;;;;;;20.82;58.34;101176.47;5139516;27;1124;-45
2021/07/27 08:29:36;;;;;;;;;;;;;;;21.24;58.62;101179.59;5158216;27;842;-56
2021/07/27 08:32:07;;;;;;;;;;;;;;;21.04;58.67;101177.88;5158139;27;784;-55
2021/07/27 08:34:34;;;;;;;;;;;;;;;20.87;56.88;101172.81;5158084;27;759;-57
2021/07/27 08:36:59;;;;;;;;;;;;;;;20.74;55.65;101179.06;5158477;27;780;-57
2021/07/27 08:39:25;;;;;;;;;;;;;;;20.77;53.77;101173.75;5158410;27;1962;-57
2021/07/27 08:41:50;;;;;;;;;;;;;;;20.49;54.78;101178.97;5157674;27;957;-43
2021/07/27 08:44:19;;;;;;;;;;;;;;;20.54;55.30;101175.34;5139079;27;795;-42
2021/07/27 08:46:45;;;;;;;;;;;;;;;20.67;56.07;101169.16;5157756;27;767;-43
2021/07/27 08:49:11;;;;;;;;;;;;;;;20.99;56.31;101167.72;5138913;27;879;-47
2021/07/27 08:51:37;;;;;;;;;;;;;;;21.09;56.51;101169.53;5139409;27;862;-55
2021/07/27 08:54:02;;;;;;;;;;;;;;;21.14;56.91;101169.47;5139629;27;814;-41
2021/07/27 08:56:29;;;;;;;;;;;;;;;21.37;56.70;101165.03;5157642;27;985;-41
2021/07/27 08:58:55;;;;;;;;;;;;;;;20.96;57.93;101170.25;5157578;27;1913;-42
2021/07/27 09:01:24;;;;;;;;;;;;;;;20.83;58.91;101164.31;5157789;27;917;-42
2021/07/27 09:03:49;;;;;;;;;;;;;;;20.63;58.87;101167.25;5158017;27;871;-57
2021/07/27 09:06:15;;;;;;;;;;;;;;;20.24;56.82;101171.72;5158104;27;1005;-42
2021/07/27 09:08:40;;;;;;;;;;;;;;;21.00;59.22;101169.38;5158290;27;787;-48
2021/07/27 09:11:09;;;;;;;;;;;;;;;21.56;59.51;101172.56;5138624;27;977;-50
2021/07/27 09:13:35;;;;;;;;;;;;;;;22.05;59.45;101173.25;5157662;27;561;-55
2021/07/27 09:16:00;;;;;;;;;;;;;;;21.51;62.43;101173.41;5139013;27;899;-45
2021/07/27 09:18:26;;;;;;;;;;;;;;;21.50;62.68;101174.56;5157537;27;1974;-55
2021/07/27 09:20:53;;;;;;;;;;;;;;;21.00;58.82;101165.78;5157764;27;862;-45
2021/07/27 09:23:28;;;;;;;;;;;;;;;21.12;57.62;101171.69;5157576;27;873;-52
2021/07/27 09:25:54;;;;;;;;;;;;;;;21.41;58.37;101172.75;5157460;27;1039;-55
2021/07/27 09:28:20;;;;;;;;;;;;;;;21.39;58.33;101173.03;5157736;27;767;-42
2021/07/27 09:30:45;;;;;;;;;;;;;;;21.00;56.98;101174.09;5157502;27;850;-42
2021/07/27 09:33:11;;;;;;;;;;;;;;;20.79;55.83;101170.69;5157349;27;771;-51
2021/07/27 09:35:37;;;;;;;;;;;;;;;20.69;54.71;101174.38;5157669;27;763;-42
2021/07/27 09:38:03;;;;;;;;;;;;;;;20.51;54.27;101171.22;5157209;27;1971;-55
2021/07/27 09:40:28;;;;;;;;;;;;;;;20.52;54.37;101175.66;5157655;27;759;-55
2021/07/27 09:42:54;;;;;;;;;;;;;;;20.67;54.78;101174.69;5156850;27;949;-41
2021/07/27 09:45:20;;;;;;;;;;;;;;;20.84;55.48;101170.66;5157415;27;798;-57
2021/07/27 09:47:48;;;;;;;;;;;;;;;21.20;55.06;101184.88;5157551;27;767;-41
2021/07/27 09:50:14;;;;;;;;;;;;;;;21.23;55.20;101179.91;5143444;27;731;-40
2021/07/27 09:52:40;;;;;;;;;;;;;;;20.73;57.54;101167.16;5142531;27;830;-52
2021/07/27 09:55:06;;;;;;;;;;;;;;;20.68;58.63;101164.47;5142461;27;913;-55
2021/07/27 09:57:31;;;;;;;;;;;;;;;20.30;58.17;101169.75;5141825;27;969;-61
2021/07/27 09:59:57;;;;;;;;;;;;;;;20.41;60.23;101159.44;5142503;27;1985;-49
2021/07/27 10:02:22;;;;;;;;;;;;;;;21.13;59.77;101147.66;5160941;27;801;-60
2021/07/27 10:04:48;;;;;;;;;;;;;;;21.68;59.43;101153.56;5141701;27;1037;-40
2021/07/27 10:07:13;;;;;;;;;;;;;;;21.28;61.76;101150.22;5142416;27;798;-55
2021/07/27 10:09:39;;;;;;;;;;;;;;;21.31;62.47;101157.13;5161346;27;822;-41
2021/07/27 10:12:07;;;;;;;;;;;;;;;20.91;61.79;101143.47;5142341;27;953;-41
2021/07/27 10:14:44;;;;;;;;;;;;;;;20.47;58.41;101141.72;5142218;27;1392;-41
2021/07/27 10:17:10;;;;;;;;;;;;;;;21.07;59.38;101146.06;5160733;27;771;-40
2021/07/27 10:19:36;;;;;;;;;;;;;;;20.66;60.75;101147.31;5160664;27;1968;-41
2021/07/27 10:22:03;;;;;;;;;;;;;;;20.73;58.97;101149.78;5160823;27;743;-42
2021/07/27 10:24:58;;;;;;;;;;;;;;;20.59;57.03;101139.38;5161055;27;751;-43
2021/07/27 10:27:26;;;;;;;;;;;;;;;20.71;55.23;101136.25;5142742;27;1275;-42
2021/07/27 10:29:51;;;;;;;;;;;;;;;20.63;54.76;101134.09;5160422;27;806;-46
2021/07/27 10:32:17;;;;;;;;;;;;;;;20.72;55.37;101137.91;5156640;27;866;-40
2021/07/27 10:34:43;;;;;;;;;;;;;;;20.91;56.07;101139.91;5148811;27;932;-52
2021/07/27 10:37:10;;;;;;;;;;;;;;;21.09;56.42;101132.78;5157758;27;815;-49
2021/07/27 10:39:52;;;;;;;;;;;;;;;21.08;57.42;101128.34;5141054;27;1917;-52
2021/07/27 10:42:18;;;;;;;;;;;;;;;20.79;58.90;101130.09;5157688;27;823;-51
2021/07/27 10:44:43;;;;;;;;;;;;;;;20.72;59.63;101126.84;5159845;27;826;-54
2021/07/27 10:47:17;;;;;;;;;;;;;;;20.33;59.34;101136.06;5140846;27;1120;-40
2021/07/27 10:49:42;;;;;;;;;;;;;;;20.21;59.17;101132.84;5159697;27;894;-47
2021/07/27 10:52:07;;;;;;;;;;;;;;;20.64;61.06;101132.97;5159281;27;893;-53
2021/07/27 10:54:33;;;;;;;;;;;;;;;21.23;59.17;101136.47;5157950;27;826;-53
2021/07/27 10:56:59;;;;;;;;;;;;;;;21.23;59.07;101143.94;5161180;27;1243;-52
2021/07/27 10:59:31;;;;;;;;;;;;;;;21.14;59.30;101133.53;5159151;27;1917;-46
2021/07/27 11:01:56;;;;;;;;;;;;;;;20.87;60.50;101133.31;5159081;27;889;-54
2021/07/27 11:04:25;;;;;;;;;;;;;;;20.79;59.91;101138.38;5162593;27;1402;-56
2021/07/27 11:06:51;;;;;;;;;;;;;;;20.39;58.68;101129.34;5158238;27;1026;-53
2021/07/27 11:09:16;;;;;;;;;;;;;;;20.70;61.12;101137.34;5161403;27;1179;-55
2021/07/27 11:11:43;;;;;;;;;;;;;;;21.00;60.57;101138.97;5158785;27;882;-52
2021/07/27 11:14:08;;;;;;;;;;;;;;;21.29;59.51;101138.03;5158574;27;873;-52
2021/07/27 11:16:42;;;;;;;;;;;;;;;21.35;59.20;101138.81;5159123;27;818;-56
2021/07/27 11:19:09;;;;;;;;;;;;;;;20.81;60.84;101136.13;5158987;27;1966;-54
2021/07/27 11:21:34;;;;;;;;;;;;;;;20.75;61.17;101137.31;5157328;27;835;-50
2021/07/27 11:24:00;;;;;;;;;;;;;;;20.54;58.42;101133.91;5139790;27;819;-54
2021/07/27 11:26:34;;;;;;;;;;;;;;;20.92;59.83;101131.31;5158959;27;823;-55
2021/07/27 11:29:08;;;;;;;;;;;;;;;21.20;60.12;101129.56;5158624;27;945;-42
2021/07/27 11:31:43;;;;;;;;;;;;;;;21.48;59.17;101137.25;5158899;27;827;-53
2021/07/27 11:34:08;;;;;;;;;;;;;;;21.45;58.96;101141.41;5156763;27;910;-55
2021/07/27 11:36:34;;;;;;;;;;;;;;;21.09;60.08;101133.59;5158999;27;823;-57
2021/07/27 11:39:05;;;;;;;;;;;;;;;20.96;60.67;101126.03;5159245;27;1910;-56
2021/07/27 11:41:31;;;;;;;;;;;;;;;20.48;60.34;101127.63;5158269;27;819;-53
2021/07/27 11:43:56;;;;;;;;;;;;;;;20.16;58.62;101125.41;5158087;27;831;-55
2021/07/27 11:46:29;;;;;;;;;;;;;;;20.74;60.32;101127.38;5157481;27;871;-54
2021/07/27 11:48:54;;;;;;;;;;;;;;;20.95;61.31;101130.72;5157936;27;826;-56
2021/07/27 11:51:32;;;;;;;;;;;;;;;21.15;60.49;101135.19;5139705;27;859;-55
2021/07/27 11:53:58;;;;;;;;;;;;;;;21.23;60.00;101130.13;5157860;27;974;-50
2021/07/27 11:56:24;;;;;;;;;;;;;;;20.75;61.29;101130.94;5138929;27;955;-57
2021/07/27 11:59:02;;;;;;;;;;;;;;;20.77;61.28;101129.53;5156772;27;1978;-57
2021/07/27 12:01:37;;;;;;;;;;;;;;;20.46;59.27;101123.50;5158218;27;818;-53
2021/07/27 12:04:03;;;;;;;;;;;;;;;20.75;60.83;101114.34;5138921;27;1147;-53
2021/07/27 12:06:28;;;;;;;;;;;;;;;20.99;60.80;101106.06;5157920;27;1140;-40
2021/07/27 12:08:54;;;;;;;;;;;;;;;21.26;59.90;101107.38;5141397;27;862;-51
2021/07/27 12:11:19;;;;;;;;;;;;;;;21.25;59.78;101108.50;5155747;27;873;-40
2021/07/27 12:13:45;;;;;;;;;;;;;;;20.94;60.80;101106.13;5158434;27;893;-49
2021/07/27 12:16:10;;;;;;;;;;;;;;;20.91;60.88;101098.44;5157309;27;862;-50
2021/07/27 12:18:35;;;;;;;;;;;;;;;20.43;59.23;101100.03;5157861;27;1913;-54
2021/07/27 12:21:01;;;;;;;;;;;;;;;20.50;60.21;101094.16;5157804;27;870;-49
2021/07/27 12:23:26;;;;;;;;;;;;;;;21.06;60.53;101091.91;5156859;27;1008;-51
2021/07/27 12:25:54;;;;;;;;;;;;;;;21.47;59.48;101094.91;5156821;27;878;-52
2021/07/27 12:28:20;;;;;;;;;;;;;;;21.52;59.05;101088.53;5156564;27;867;-51
2021/07/27 12:30:47;;;;;;;;;;;;;;;21.08;60.36;101084.94;5139246;27;1176;-52
2021/07/27 12:33:14;;;;;;;;;;;;;;;20.84;61.18;101080.25;5157330;27;843;-49
2021/07/27 12:35:39;;;;;;;;;;;;;;;20.67;60.24;101088.19;5157598;27;877;-52
2021/07/27 12:38:05;;;;;;;;;;;;;;;20.11;58.90;101084.88;5155929;27;1901;-47
2021/07/27 12:40:31;;;;;;;;;;;;;;;20.96;60.67;101084.56;5157670;27;818;-51
2021/07/27 12:42:56;;;;;;;;;;;;;;;21.30;60.00;101087.13;5155935;27;999;-41
2021/07/27 12:45:22;;;;;;;;;;;;;;;21.41;59.49;101087.00;5156798;27;827;-42
2021/07/27 12:47:47;;;;;;;;;;;;;;;21.07;60.24;101083.31;5157589;27;818;-52
2021/07/27 12:50:13;;;;;;;;;;;;;;;20.91;60.97;101088.19;5155980;27;889;-46
2021/07/27 12:52:38;;;;;;;;;;;;;;;20.64;60.24;101083.25;5157516;27;869;-51
2021/07/27 12:55:04;;;;;;;;;;;;;;;20.28;57.88;101086.38;5156888;27;833;-40
2021/07/27 12:57:29;;;;;;;;;;;;;;;20.98;60.46;101079.53;5148951;27;1267;-40
2021/07/27 12:59:55;;;;;;;;;;;;;;;21.28;60.22;101086.63;5167552;27;1921;-40
2021/07/27 13:02:23;;;;;;;;;;;;;;;21.64;58.85;101085.28;5163925;27;830;-42
2021/07/27 13:04:48;;;;;;;;;;;;;;;21.51;59.04;101082.13;5157571;27;1179;-40
2021/07/27 13:07:14;;;;;;;;;;;;;;;21.00;60.59;101080.91;5166233;27;1154;-42
2021/07/27 13:09:39;;;;;;;;;;;;;;;20.90;61.05;101077.44;5168799;27;830;-45